Holden, Utah
Current Conditions -  °F | °C
As of 10:15 AM on Thursday 23 Oct 2014 (Local Time) from KDTA Reporting Station
Clear Clear  
Wind Chill: 55°   Ceiling: Unl
Heat Index: 55°   Visibility: 10mi
Dew Point: 30°   Wind: 3mph
Humidity: 40%   Direction: 200°SSW
Pressure: 30.2"   Gusts: NA
Location:  39.1°N, 112.27°W
Report Text: KDTA 231615Z AUTO 20003KT 10SM CLR 13/M01 A3020 RMK AO1 T01261009
Loading
Personal Weather Stations






























Interactive Weather Map
Tropical Storm Tracking
New forecast layout! Learn more

10-Day Weather Forecast

Advertisements
Track Severe Weather on mobile